Time;durP1;ratioP1;P1;durP2;ratioP2;P2;SDS_P1;SDS_P2;PMS_P1;PMS_P2;Temp;Humidity;BMP_temperature;BMP_pressure;BME280_temperature;BME280_humidity;BME280_pressure;Samples;Min_cycle;Max_cycle;Signal;HPM_P1;HPM_P2
2023/01/29 00:01:24;;;;;;;9.85;8.10;;;;;;;;;;5100443;28;20184;-86
2023/01/29 00:03:52;;;;;;;12.50;8.73;;;;;;;;;;5100827;28;20287;-85
2023/01/29 00:06:19;;;;;;;10.15;8.77;;;;;;;;;;5099991;28;20251;-87
2023/01/29 00:08:49;;;;;;;8.88;7.55;;;;;;;;;;5099446;28;20268;-86
2023/01/29 00:11:16;;;;;;;7.50;6.75;;;;;;;;;;5099446;28;20630;-87
2023/01/29 00:13:44;;;;;;;8.05;6.68;;;;;;;;;;5099046;28;20228;-87
2023/01/29 00:16:12;;;;;;;7.20;6.57;;;;;;;;;;5099668;28;20307;-87
2023/01/29 00:18:41;;;;;;;6.63;5.93;;;;;;;;;;5099238;28;20222;-85
2023/01/29 00:21:10;;;;;;;8.43;7.63;;;;;;;;;;5099587;28;20227;-87
2023/01/29 00:23:38;;;;;;;9.23;8.23;;;;;;;;;;5099178;28;20231;-86
2023/01/29 00:26:07;;;;;;;12.25;8.80;;;;;;;;;;5097674;28;20211;-87
2023/01/29 00:28:35;;;;;;;12.75;9.85;;;;;;;;;;5098360;28;20286;-86
2023/01/29 00:31:08;;;;;;;12.50;10.15;;;;;;;;;;5098481;28;20201;-86
2023/01/29 00:33:36;;;;;;;8.95;7.65;;;;;;;;;;5099278;28;20582;-85
2023/01/29 00:36:05;;;;;;;9.15;8.25;;;;;;;;;;5099627;28;20287;-87
2023/01/29 00:38:34;;;;;;;8.23;7.43;;;;;;;;;;5098042;28;20212;-84
2023/01/29 00:46:39;;;;;;;8.90;7.78;;;;;;;;;;5098958;28;20187;-86
2023/01/29 00:49:07;;;;;;;7.45;6.28;;;;;;;;;;5097275;28;20238;-86
2023/01/29 00:51:35;;;;;;;8.40;7.25;;;;;;;;;;5098210;28;20243;-86
2023/01/29 00:54:05;;;;;;;7.55;6.85;;;;;;;;;;5098465;28;20307;-86
2023/01/29 00:56:36;;;;;;;7.10;6.40;;;;;;;;;;5098505;28;20211;-86
2023/01/29 00:59:04;;;;;;;5.65;5.00;;;;;;;;;;5097580;28;20299;-86
2023/01/29 01:04:16;;;;;;;8.35;7.55;;;;;;;;;;5098608;28;20214;-86
2023/01/29 01:06:44;;;;;;;11.93;10.18;;;;;;;;;;5098739;28;20263;-87
2023/01/29 01:12:00;;;;;;;9.95;8.82;;;;;;;;;;5072537;28;20196;-85
2023/01/29 01:14:28;;;;;;;12.60;9.32;;;;;;;;;;5097443;28;20252;-87
2023/01/29 01:16:55;;;;;;;9.43;8.18;;;;;;;;;;5099377;28;20973;-86
2023/01/29 01:19:23;;;;;;;8.63;7.38;;;;;;;;;;5098546;28;20677;-85
2023/01/29 01:21:50;;;;;;;6.68;6.07;;;;;;;;;;5098745;28;20200;-85
2023/01/29 01:24:19;;;;;;;6.18;5.55;;;;;;;;;;5099373;28;20255;-87
2023/01/29 01:26:46;;;;;;;9.02;8.10;;;;;;;;;;5098439;28;20619;-87
2023/01/29 01:29:15;;;;;;;9.32;8.43;;;;;;;;;;5082983;28;20204;-86
2023/01/29 01:31:43;;;;;;;8.35;7.55;;;;;;;;;;5078851;28;20232;-86
2023/01/29 01:34:10;;;;;;;6.95;6.25;;;;;;;;;;5078871;28;20248;-85
2023/01/29 01:36:37;;;;;;;8.23;6.90;;;;;;;;;;5078951;28;20232;-86
2023/01/29 01:39:05;;;;;;;9.40;8.32;;;;;;;;;;5078073;28;20229;-85
2023/01/29 01:41:33;;;;;;;11.75;10.18;;;;;;;;;;5078438;28;20197;-86
2023/01/29 01:44:03;;;;;;;11.40;10.25;;;;;;;;;;5078352;28;20296;-86
2023/01/29 01:46:34;;;;;;;8.23;7.43;;;;;;;;;;5078137;28;20642;-86
2023/01/29 01:49:05;;;;;;;9.27;7.50;;;;;;;;;;5076915;28;20278;-84
2023/01/29 01:51:35;;;;;;;9.25;8.35;;;;;;;;;;5078230;28;20291;-85
2023/01/29 01:54:07;;;;;;;8.23;7.32;;;;;;;;;;5078005;28;20244;-86
2023/01/29 01:56:39;;;;;;;9.43;8.13;;;;;;;;;;5077825;28;20242;-87
2023/01/29 01:59:12;;;;;;;8.10;7.25;;;;;;;;;;5091102;28;20196;-85
2023/01/29 02:01:43;;;;;;;12.50;11.00;;;;;;;;;;5098494;28;20291;-87
2023/01/29 02:09:53;;;;;;;11.27;8.80;;;;;;;;;;5097192;28;20187;-86
2023/01/29 02:12:21;;;;;;;9.13;7.00;;;;;;;;;;5098178;28;20708;-86
2023/01/29 02:14:49;;;;;;;8.15;7.03;;;;;;;;;;5097584;28;20311;-86
2023/01/29 02:17:20;;;;;;;8.80;7.75;;;;;;;;;;5097721;28;20263;-85
2023/01/29 02:19:55;;;;;;;8.52;7.53;;;;;;;;;;5097661;28;20223;-86
2023/01/29 02:22:42;;;;;;;9.20;8.38;;;;;;;;;;5097734;28;20200;-85
2023/01/29 02:25:48;;;;;;;10.23;8.70;;;;;;;;;;5097557;28;20224;-85
2023/01/29 02:28:35;;;;;;;12.80;10.75;;;;;;;;;;5101523;28;20220;-87
2023/01/29 02:31:10;;;;;;;9.68;8.60;;;;;;;;;;5100977;28;20875;-86
2023/01/29 02:33:48;;;;;;;9.90;7.90;;;;;;;;;;5101105;28;20288;-86
2023/01/29 02:36:24;;;;;;;8.10;6.13;;;;;;;;;;5101712;28;20199;-85
2023/01/29 02:39:00;;;;;;;6.95;6.28;;;;;;;;;;5101765;28;20292;-86
2023/01/29 02:41:32;;;;;;;13.50;10.88;;;;;;;;;;5102555;28;20214;-86
2023/01/29 02:44:06;;;;;;;11.60;9.38;;;;;;;;;;5103000;28;20243;-87
2023/01/29 02:46:38;;;;;;;9.95;8.43;;;;;;;;;;5102062;28;20199;-84
2023/01/29 02:49:11;;;;;;;10.05;8.95;;;;;;;;;;5101702;28;20213;-86
2023/01/29 02:51:43;;;;;;;9.32;8.30;;;;;;;;;;5101457;28;20213;-87
2023/01/29 02:54:20;;;;;;;12.02;8.60;;;;;;;;;;5101547;28;20289;-86
2023/01/29 02:56:54;;;;;;;9.85;8.77;;;;;;;;;;5102095;28;20180;-85
2023/01/29 02:59:26;;;;;;;11.02;9.00;;;;;;;;;;5100968;28;20268;-85
2023/01/29 03:01:56;;;;;;;12.80;10.20;;;;;;;;;;5101653;28;20218;-85
2023/01/29 03:04:29;;;;;;;13.82;11.40;;;;;;;;;;5101587;28;20243;-87
2023/01/29 03:07:01;;;;;;;14.23;9.82;;;;;;;;;;5101141;28;20227;-87
2023/01/29 03:09:34;;;;;;;12.13;10.27;;;;;;;;;;5098825;28;20224;-87
2023/01/29 03:12:27;;;;;;;10.50;8.55;;;;;;;;;;5100751;28;20176;-86
2023/01/29 03:15:11;;;;;;;8.40;6.63;;;;;;;;;;5101343;28;20220;-87
2023/01/29 03:17:44;;;;;;;8.55;7.75;;;;;;;;;;5101124;28;20203;-85
2023/01/29 03:20:17;;;;;;;9.60;7.93;;;;;;;;;;5100703;28;20186;-85
2023/01/29 03:22:49;;;;;;;7.78;6.72;;;;;;;;;;5101820;28;20212;-86
2023/01/29 03:33:46;;;;;;;7.90;7.07;;;;;;;;;;5100509;28;20203;-86
2023/01/29 03:36:18;;;;;;;9.48;8.40;;;;;;;;;;5100249;28;20214;-87
2023/01/29 03:38:46;;;;;;;14.68;11.57;;;;;;;;;;5099574;28;20223;-86
2023/01/29 03:41:23;;;;;;;13.75;11.82;;;;;;;;;;5099986;28;20263;-86
2023/01/29 03:43:56;;;;;;;13.80;11.23;;;;;;;;;;5100208;28;20232;-87
2023/01/29 03:46:30;;;;;;;17.20;12.80;;;;;;;;;;5100431;28;20706;-87
2023/01/29 03:49:07;;;;;;;11.57;9.32;;;;;;;;;;5099419;28;20205;-85
2023/01/29 03:51:38;;;;;;;11.30;9.68;;;;;;;;;;5099828;28;20602;-87
2023/01/29 03:54:12;;;;;;;10.00;7.95;;;;;;;;;;5099475;28;20303;-86
2023/01/29 03:56:55;;;;;;;10.82;7.43;;;;;;;;;;5100221;28;20235;-87
2023/01/29 03:59:33;;;;;;;7.30;6.10;;;;;;;;;;5099083;28;20236;-87
2023/01/29 04:02:06;;;;;;;7.20;6.03;;;;;;;;;;5099860;28;20266;-86
2023/01/29 04:04:35;;;;;;;6.13;5.50;;;;;;;;;;5099418;28;20308;-86
2023/01/29 04:07:08;;;;;;;7.47;6.70;;;;;;;;;;5100215;28;20188;-87
2023/01/29 04:09:40;;;;;;;6.65;5.30;;;;;;;;;;5098277;28;20664;-86
2023/01/29 04:12:11;;;;;;;5.18;4.65;;;;;;;;;;5099887;28;20641;-87
2023/01/29 04:14:39;;;;;;;3.55;3.03;;;;;;;;;;5099837;28;20303;-86
2023/01/29 04:17:12;;;;;;;4.22;3.83;;;;;;;;;;5100180;28;20224;-87
2023/01/29 04:19:40;;;;;;;7.38;4.45;;;;;;;;;;5099408;28;20211;-86
2023/01/29 04:22:12;;;;;;;6.35;5.20;;;;;;;;;;5099646;28;20240;-87
2023/01/29 04:24:40;;;;;;;6.95;5.18;;;;;;;;;;5100162;28;20251;-86
2023/01/29 04:27:21;;;;;;;6.18;4.82;;;;;;;;;;5098401;28;20220;-85
2023/01/29 04:30:02;;;;;;;4.82;4.15;;;;;;;;;;5098783;28;20216;-87
2023/01/29 04:32:39;;;;;;;5.47;4.60;;;;;;;;;;5099523;28;20283;-86
2023/01/29 04:35:14;;;;;;;4.85;4.38;;;;;;;;;;5098771;28;20232;-87
2023/01/29 04:37:50;;;;;;;5.50;4.75;;;;;;;;;;5098589;28;20220;-84
2023/01/29 04:40:23;;;;;;;4.65;4.18;;;;;;;;;;5098457;28;20204;-87
2023/01/29 04:42:57;;;;;;;5.68;4.70;;;;;;;;;;5097535;28;20201;-86
2023/01/29 04:45:34;;;;;;;6.70;5.03;;;;;;;;;;5098785;28;20290;-87
2023/01/29 04:48:11;;;;;;;5.18;4.63;;;;;;;;;;5098108;28;20236;-85
2023/01/29 04:50:44;;;;;;;7.82;5.47;;;;;;;;;;5097887;28;20223;-86
2023/01/29 04:53:17;;;;;;;4.45;4.05;;;;;;;;;;5098873;28;20248;-87
2023/01/29 04:55:49;;;;;;;5.93;4.97;;;;;;;;;;5098365;28;20227;-86
2023/01/29 04:58:25;;;;;;;5.07;4.15;;;;;;;;;;5098817;28;20287;-87
2023/01/29 05:00:54;;;;;;;4.35;3.78;;;;;;;;;;5098518;28;20180;-84
2023/01/29 05:03:26;;;;;;;5.38;4.28;;;;;;;;;;5098188;28;20235;-87
2023/01/29 05:05:56;;;;;;;4.07;3.20;;;;;;;;;;5098645;28;20760;-87
2023/01/29 05:08:26;;;;;;;5.55;4.38;;;;;;;;;;5096903;28;20766;-85
2023/01/29 05:10:55;;;;;;;5.43;4.05;;;;;;;;;;5098078;28;20230;-87
2023/01/29 05:13:24;;;;;;;6.10;5.00;;;;;;;;;;5097480;28;20227;-86
2023/01/29 05:15:56;;;;;;;5.85;4.85;;;;;;;;;;5098012;28;20259;-86
2023/01/29 05:18:25;;;;;;;5.00;4.35;;;;;;;;;;5097601;28;20742;-86
2023/01/29 05:20:53;;;;;;;5.00;4.22;;;;;;;;;;5098377;28;20231;-86
2023/01/29 05:23:22;;;;;;;4.35;3.80;;;;;;;;;;5097811;28;20207;-86
2023/01/29 05:25:51;;;;;;;3.78;3.47;;;;;;;;;;5098416;28;20216;-87
2023/01/29 05:28:18;;;;;;;4.20;3.70;;;;;;;;;;5097891;28;20232;-86
2023/01/29 05:30:48;;;;;;;3.95;3.55;;;;;;;;;;5097780;28;20864;-85
2023/01/29 05:33:19;;;;;;;4.70;3.83;;;;;;;;;;5097885;28;20276;-85
2023/01/29 05:35:49;;;;;;;3.05;2.75;;;;;;;;;;5098296;28;20299;-86
2023/01/29 05:38:17;;;;;;;3.60;3.30;;;;;;;;;;5097582;28;20282;-87
2023/01/29 05:40:45;;;;;;;5.32;4.82;;;;;;;;;;5098020;28;20227;-85
2023/01/29 05:43:17;;;;;;;6.10;5.20;;;;;;;;;;5098606;28;20252;-86
2023/01/29 05:45:53;;;;;;;5.82;4.68;;;;;;;;;;5098849;28;20263;-85
2023/01/29 05:48:21;;;;;;;6.10;4.97;;;;;;;;;;5097541;28;20192;-86
2023/01/29 05:50:50;;;;;;;4.32;4.03;;;;;;;;;;5096075;28;20269;-86
2023/01/29 05:53:17;;;;;;;5.18;4.68;;;;;;;;;;5097878;28;20669;-86
2023/01/29 05:55:45;;;;;;;8.02;7.07;;;;;;;;;;5098756;28;20255;-84
2023/01/29 05:58:13;;;;;;;7.38;6.32;;;;;;;;;;5098411;28;20204;-85
2023/01/29 06:00:41;;;;;;;13.13;7.25;;;;;;;;;;5098064;28;20207;-86
2023/01/29 06:03:09;;;;;;;9.63;7.50;;;;;;;;;;5098407;28;20276;-86
2023/01/29 06:05:38;;;;;;;9.70;7.18;;;;;;;;;;5098676;28;20258;-86
2023/01/29 06:08:08;;;;;;;6.80;6.03;;;;;;;;;;5097405;28;20197;-85
2023/01/29 06:10:36;;;;;;;7.78;5.88;;;;;;;;;;5097016;28;20266;-86
2023/01/29 06:13:04;;;;;;;5.07;4.57;;;;;;;;;;5097481;28;20232;-87
2023/01/29 06:15:31;;;;;;;6.85;5.45;;;;;;;;;;5097723;28;20303;-85
2023/01/29 06:17:59;;;;;;;9.43;6.82;;;;;;;;;;5097338;28;20699;-85
2023/01/29 06:20:27;;;;;;;8.60;6.88;;;;;;;;;;5097333;28;20196;-85
2023/01/29 06:22:54;;;;;;;10.40;7.78;;;;;;;;;;5098384;28;20207;-87
2023/01/29 06:25:23;;;;;;;11.50;8.02;;;;;;;;;;5097440;28;20308;-87
2023/01/29 06:27:51;;;;;;;9.43;7.88;;;;;;;;;;5098030;28;20259;-85
2023/01/29 06:30:19;;;;;;;8.05;7.10;;;;;;;;;;5097124;28;20656;-86
2023/01/29 06:32:47;;;;;;;7.40;6.05;;;;;;;;;;5098245;28;20663;-85
2023/01/29 06:35:14;;;;;;;6.65;5.45;;;;;;;;;;5097173;28;20291;-87
2023/01/29 06:37:42;;;;;;;7.13;5.90;;;;;;;;;;5098174;28;20231;-87
2023/01/29 06:40:11;;;;;;;6.07;5.47;;;;;;;;;;5096873;28;20197;-85
2023/01/29 06:42:40;;;;;;;20.27;13.93;;;;;;;;;;5097169;28;20257;-86
2023/01/29 06:45:10;;;;;;;19.15;12.43;;;;;;;;;;5097157;28;20777;-85
2023/01/29 06:47:37;;;;;;;18.83;11.20;;;;;;;;;;5096600;28;20205;-86
2023/01/29 06:50:05;;;;;;;12.90;9.10;;;;;;;;;;5095762;28;20240;-85
2023/01/29 06:52:33;;;;;;;10.02;8.32;;;;;;;;;;5097803;28;20192;-86
2023/01/29 06:55:00;;;;;;;10.82;8.23;;;;;;;;;;5097976;28;20242;-85
2023/01/29 06:57:30;;;;;;;7.35;5.35;;;;;;;;;;5097134;28;20224;-85
2023/01/29 06:59:59;;;;;;;6.40;5.70;;;;;;;;;;5085306;28;20224;-85
2023/01/29 07:02:26;;;;;;;7.13;6.13;;;;;;;;;;5077339;28;20228;-87
2023/01/29 07:04:54;;;;;;;6.82;5.55;;;;;;;;;;5077652;28;20252;-85
2023/01/29 07:07:21;;;;;;;6.90;4.65;;;;;;;;;;5077588;28;20251;-86
2023/01/29 07:09:49;;;;;;;9.63;8.00;;;;;;;;;;5075827;28;20289;-84
2023/01/29 07:12:16;;;;;;;12.45;8.98;;;;;;;;;;5077430;28;20709;-87
2023/01/29 07:14:44;;;;;;;9.10;7.90;;;;;;;;;;5079994;28;20253;-85
2023/01/29 07:17:13;;;;;;;7.50;6.07;;;;;;;;;;5080695;28;20228;-87
2023/01/29 07:19:40;;;;;;;5.25;4.75;;;;;;;;;;5080330;28;20266;-86
2023/01/29 07:22:08;;;;;;;7.50;6.10;;;;;;;;;;5079207;28;20201;-87
2023/01/29 07:24:35;;;;;;;7.75;6.05;;;;;;;;;;5080421;28;20213;-86
2023/01/29 07:27:03;;;;;;;8.00;5.78;;;;;;;;;;5078891;28;20248;-87
2023/01/29 07:29:30;;;;;;;7.85;6.72;;;;;;;;;;5097043;28;20672;-85
2023/01/29 07:31:58;;;;;;;6.55;5.80;;;;;;;;;;5100494;28;20252;-87
2023/01/29 07:34:27;;;;;;;8.13;6.00;;;;;;;;;;5100637;28;20307;-87
2023/01/29 07:36:56;;;;;;;10.68;8.32;;;;;;;;;;5100661;28;20188;-85
2023/01/29 07:39:23;;;;;;;8.48;6.57;;;;;;;;;;5100102;28;20204;-87
2023/01/29 07:41:51;;;;;;;10.77;8.52;;;;;;;;;;5100375;28;20196;-86
2023/01/29 07:44:18;;;;;;;9.73;8.00;;;;;;;;;;5100498;28;20653;-86
2023/01/29 07:46:46;;;;;;;7.80;6.82;;;;;;;;;;5100006;28;20701;-86
2023/01/29 07:49:14;;;;;;;13.63;8.93;;;;;;;;;;5099605;28;20195;-87
2023/01/29 07:51:43;;;;;;;9.00;7.85;;;;;;;;;;5100247;28;20565;-85
2023/01/29 07:54:10;;;;;;;7.45;6.75;;;;;;;;;;5100002;28;20262;-86
2023/01/29 07:56:38;;;;;;;9.02;7.05;;;;;;;;;;5099892;28;20729;-85
2023/01/29 07:59:05;;;;;;;6.85;6.18;;;;;;;;;;5099737;28;20208;-86
2023/01/29 08:01:33;;;;;;;7.63;6.30;;;;;;;;;;5100697;28;20208;-84
2023/01/29 08:04:00;;;;;;;8.98;7.30;;;;;;;;;;5100075;28;20318;-86
2023/01/29 08:06:28;;;;;;;7.70;6.50;;;;;;;;;;5099568;28;20289;-87
2023/01/29 08:08:58;;;;;;;9.23;7.97;;;;;;;;;;5098231;28;20769;-86
2023/01/29 08:11:26;;;;;;;7.80;6.40;;;;;;;;;;5099476;28;20200;-87
2023/01/29 08:13:54;;;;;;;8.25;7.40;;;;;;;;;;5099506;28;20239;-85
2023/01/29 08:16:21;;;;;;;11.65;8.45;;;;;;;;;;5099543;28;20683;-86
2023/01/29 08:18:49;;;;;;;9.75;7.80;;;;;;;;;;5099248;28;20285;-86
2023/01/29 08:21:16;;;;;;;9.57;7.72;;;;;;;;;;5100484;28;20196;-86
2023/01/29 08:23:44;;;;;;;7.45;6.75;;;;;;;;;;5101914;28;20204;-87
2023/01/29 08:26:13;;;;;;;10.20;8.07;;;;;;;;;;5102290;28;20204;-87
2023/01/29 08:28:40;;;;;;;9.85;8.15;;;;;;;;;;5091918;28;20237;-86
2023/01/29 08:31:14;;;;;;;8.60;7.53;;;;;;;;;;5082421;28;20200;-86
2023/01/29 08:33:42;;;;;;;8.20;7.13;;;;;;;;;;5082354;28;20211;-86
2023/01/29 08:36:11;;;;;;;8.75;7.85;;;;;;;;;;5082617;28;20661;-85
2023/01/29 08:38:38;;;;;;;9.35;7.80;;;;;;;;;;5081923;28;20232;-86
2023/01/29 08:41:06;;;;;;;9.38;7.90;;;;;;;;;;5082018;28;20257;-86
2023/01/29 08:43:37;;;;;;;8.00;6.50;;;;;;;;;;5081876;28;20239;-85
2023/01/29 08:46:05;;;;;;;8.05;5.70;;;;;;;;;;5081589;28;20182;-87
2023/01/29 08:48:33;;;;;;;6.25;5.65;;;;;;;;;;5082114;28;20228;-86
2023/01/29 08:51:03;;;;;;;8.93;6.32;;;;;;;;;;5081667;28;20220;-86
2023/01/29 08:53:31;;;;;;;7.68;6.00;;;;;;;;;;5082483;28;20613;-86
2023/01/29 08:55:58;;;;;;;7.85;6.75;;;;;;;;;;5083090;28;20664;-85
2023/01/29 08:58:26;;;;;;;7.75;6.00;;;;;;;;;;5081052;28;20248;-85
2023/01/29 09:00:55;;;;;;;7.57;6.75;;;;;;;;;;5080139;28;20225;-85
2023/01/29 09:03:22;;;;;;;9.10;6.50;;;;;;;;;;5078570;28;20229;-86
2023/01/29 09:05:50;;;;;;;7.80;7.00;;;;;;;;;;5078666;28;20288;-87
2023/01/29 09:08:17;;;;;;;7.88;6.50;;;;;;;;;;5077089;28;20341;-85
2023/01/29 09:10:45;;;;;;;6.60;5.90;;;;;;;;;;5077990;28;20224;-85
2023/01/29 09:13:12;;;;;;;7.80;6.00;;;;;;;;;;5076138;28;20665;-86
2023/01/29 09:15:40;;;;;;;8.07;7.30;;;;;;;;;;5077309;28;20220;-87
2023/01/29 09:18:09;;;;;;;8.48;6.90;;;;;;;;;;5076922;28;20220;-87
2023/01/29 09:20:37;;;;;;;9.32;7.60;;;;;;;;;;5077328;28;20209;-87
2023/01/29 09:23:06;;;;;;;9.40;6.93;;;;;;;;;;5077724;28;20200;-86
2023/01/29 09:25:34;;;;;;;9.23;8.23;;;;;;;;;;5077447;28;20246;-85
2023/01/29 09:28:01;;;;;;;10.30;8.73;;;;;;;;;;5082211;28;20287;-84
2023/01/29 09:30:29;;;;;;;10.23;7.65;;;;;;;;;;5098302;28;20637;-85
2023/01/29 09:32:56;;;;;;;9.07;7.95;;;;;;;;;;5098578;28;20259;-86
2023/01/29 09:35:25;;;;;;;8.35;7.15;;;;;;;;;;5097411;28;20700;-86
2023/01/29 09:37:53;;;;;;;7.25;6.43;;;;;;;;;;5098580;28;20227;-86
2023/01/29 09:40:26;;;;;;;11.18;8.73;;;;;;;;;;5098980;28;20584;-86
2023/01/29 09:42:58;;;;;;;7.78;6.97;;;;;;;;;;5098896;28;20199;-86
2023/01/29 09:45:27;;;;;;;6.70;6.00;;;;;;;;;;5100066;28;20245;-87
2023/01/29 09:47:57;;;;;;;9.25;7.25;;;;;;;;;;5099177;28;20224;-85
2023/01/29 09:50:31;;;;;;;7.18;6.35;;;;;;;;;;5098567;28;20173;-86
2023/01/29 09:53:02;;;;;;;9.80;6.78;;;;;;;;;;5099015;28;20272;-87
2023/01/29 09:55:34;;;;;;;9.73;8.68;;;;;;;;;;5098375;28;20223;-87
2023/01/29 09:58:07;;;;;;;8.73;7.82;;;;;;;;;;5093174;28;20680;-85
2023/01/29 10:00:39;;;;;;;8.23;7.38;;;;;;;;;;5078233;28;20630;-88
2023/01/29 10:03:24;;;;;;;10.95;8.85;;;;;;;;;;5078669;28;20200;-86
2023/01/29 10:06:06;;;;;;;10.13;8.68;;;;;;;;;;5078919;28;20713;-86
2023/01/29 10:08:53;;;;;;;8.73;7.32;;;;;;;;;;5075966;28;20224;-86
2023/01/29 10:11:33;;;;;;;6.53;5.72;;;;;;;;;;5077141;28;20332;-85
2023/01/29 10:14:11;;;;;;;6.97;6.10;;;;;;;;;;5075681;28;20263;-83
2023/01/29 10:16:54;;;;;;;7.93;7.13;;;;;;;;;;5077280;28;20216;-85
2023/01/29 10:19:56;;;;;;;7.25;6.35;;;;;;;;;;5075706;28;20192;-84
2023/01/29 10:22:56;;;;;;;7.30;6.53;;;;;;;;;;5076469;28;20231;-86
2023/01/29 10:25:24;;;;;;;8.38;6.43;;;;;;;;;;5077269;28;20311;-87
2023/01/29 10:27:54;;;;;;;8.82;7.93;;;;;;;;;;5080660;28;20208;-85
2023/01/29 10:30:34;;;;;;;8.23;7.15;;;;;;;;;;5097495;28;20286;-87
2023/01/29 10:33:04;;;;;;;10.27;6.75;;;;;;;;;;5096706;28;20712;-85
2023/01/29 10:35:34;;;;;;;10.43;7.82;;;;;;;;;;5096976;28;20234;-85
2023/01/29 10:38:21;;;;;;;8.43;7.63;;;;;;;;;;5096320;28;20547;-88
2023/01/29 10:40:53;;;;;;;9.55;8.40;;;;;;;;;;5097619;28;20318;-84
2023/01/29 10:43:28;;;;;;;9.20;8.10;;;;;;;;;;5096702;28;20931;-86
2023/01/29 10:46:03;;;;;;;8.80;6.40;;;;;;;;;;5098481;28;20279;-85
2023/01/29 10:48:44;;;;;;;9.60;7.82;;;;;;;;;;5101125;28;20618;-88
2023/01/29 10:51:28;;;;;;;7.10;6.00;;;;;;;;;;5101988;28;20244;-85
2023/01/29 10:54:09;;;;;;;6.90;6.18;;;;;;;;;;5101055;28;20288;-85
2023/01/29 10:56:53;;;;;;;9.93;7.38;;;;;;;;;;5099510;28;20222;-88
2023/01/29 10:59:42;;;;;;;10.90;7.85;;;;;;;;;;5097968;28;20728;-86
2023/01/29 11:02:17;;;;;;;12.13;9.90;;;;;;;;;;5099174;28;20227;-87
2023/01/29 11:04:45;;;;;;;13.20;9.90;;;;;;;;;;5099612;28;20231;-88
2023/01/29 11:07:13;;;;;;;9.75;8.32;;;;;;;;;;5100018;28;20665;-85
2023/01/29 11:09:46;;;;;;;12.73;9.95;;;;;;;;;;5097740;28;20204;-87
2023/01/29 11:12:15;;;;;;;8.90;7.60;;;;;;;;;;5100361;28;20256;-85
2023/01/29 11:14:50;;;;;;;11.18;8.70;;;;;;;;;;5098766;28;20263;-87
2023/01/29 11:17:20;;;;;;;10.80;9.43;;;;;;;;;;5099109;28;20228;-86
2023/01/29 11:19:50;;;;;;;7.85;7.07;;;;;;;;;;5100456;28;20632;-87
2023/01/29 11:22:23;;;;;;;7.80;6.93;;;;;;;;;;5101719;28;20250;-87
2023/01/29 11:25:11;;;;;;;10.45;8.35;;;;;;;;;;5100530;28;20307;-84
2023/01/29 11:27:45;;;;;;;8.02;7.22;;;;;;;;;;5100057;28;20183;-84
2023/01/29 11:30:20;;;;;;;11.15;7.22;;;;;;;;;;5099614;28;20210;-86
2023/01/29 11:32:53;;;;;;;11.68;9.57;;;;;;;;;;5100985;28;20184;-87
2023/01/29 11:35:24;;;;;;;8.48;7.10;;;;;;;;;;5100831;28;20220;-85
2023/01/29 11:37:52;;;;;;;6.90;6.20;;;;;;;;;;5099937;28;20181;-87
2023/01/29 11:40:40;;;;;;;16.20;11.70;;;;;;;;;;5099569;28;20370;-85
2023/01/29 11:43:21;;;;;;;7.07;6.38;;;;;;;;;;5099722;28;20248;-87
2023/01/29 11:45:51;;;;;;;7.32;6.03;;;;;;;;;;5100191;28;20228;-85
2023/01/29 11:48:20;;;;;;;6.25;5.65;;;;;;;;;;5100683;28;20248;-86
2023/01/29 11:50:59;;;;;;;7.03;6.32;;;;;;;;;;5099621;28;20260;-86
2023/01/29 11:53:36;;;;;;;5.00;4.47;;;;;;;;;;5100168;28;20192;-86
2023/01/29 11:56:16;;;;;;;5.95;5.45;;;;;;;;;;5100184;28;20183;-86
2023/01/29 11:58:44;;;;;;;7.70;6.32;;;;;;;;;;5097907;28;20188;-87
2023/01/29 12:01:13;;;;;;;8.13;6.57;;;;;;;;;;5099628;28;20224;-88
2023/01/29 12:03:43;;;;;;;7.95;7.15;;;;;;;;;;5101029;28;20232;-87
2023/01/29 12:06:19;;;;;;;5.95;5.10;;;;;;;;;;5100623;28;20205;-84
2023/01/29 12:08:56;;;;;;;4.70;4.10;;;;;;;;;;5097354;28;20199;-84
2023/01/29 12:11:31;;;;;;;5.65;5.07;;;;;;;;;;5100653;28;20203;-85
2023/01/29 12:14:01;;;;;;;6.85;5.10;;;;;;;;;;5099823;28;20576;-86
2023/01/29 12:16:33;;;;;;;5.60;5.03;;;;;;;;;;5099718;28;20200;-86
2023/01/29 12:19:10;;;;;;;6.28;5.18;;;;;;;;;;5098370;28;20548;-86
2023/01/29 12:21:46;;;;;;;5.20;4.30;;;;;;;;;;5099059;28;20215;-83
2023/01/29 12:24:31;;;;;;;4.53;4.00;;;;;;;;;;5100432;28;20272;-84
2023/01/29 12:27:07;;;;;;;4.75;4.25;;;;;;;;;;5100046;28;20230;-87
2023/01/29 12:29:41;;;;;;;5.25;4.75;;;;;;;;;;5081522;28;20236;-87
2023/01/29 12:32:26;;;;;;;6.15;4.97;;;;;;;;;;5080583;28;20177;-87
2023/01/29 12:34:59;;;;;;;5.68;4.50;;;;;;;;;;5079911;28;20268;-86
2023/01/29 12:37:39;;;;;;;5.13;4.15;;;;;;;;;;5081224;28;20212;-86
2023/01/29 12:40:14;;;;;;;4.07;3.67;;;;;;;;;;5081095;28;20200;-85
2023/01/29 12:42:46;;;;;;;5.97;4.53;;;;;;;;;;5079811;28;20210;-87
2023/01/29 12:45:18;;;;;;;5.00;4.50;;;;;;;;;;5079470;28;20245;-86
2023/01/29 12:47:50;;;;;;;5.95;5.25;;;;;;;;;;5080371;28;20181;-84
2023/01/29 12:50:22;;;;;;;5.43;4.93;;;;;;;;;;5078286;28;20185;-85
2023/01/29 12:52:53;;;;;;;5.10;4.57;;;;;;;;;;5078433;28;20169;-86
2023/01/29 12:55:23;;;;;;;5.35;4.85;;;;;;;;;;5078225;28;20232;-84
2023/01/29 12:57:58;;;;;;;4.97;4.53;;;;;;;;;;5081050;28;20204;-85
2023/01/29 13:00:29;;;;;;;5.20;4.78;;;;;;;;;;5098155;28;20243;-83
2023/01/29 13:03:03;;;;;;;7.15;6.45;;;;;;;;;;5097131;28;20197;-86
2023/01/29 13:05:36;;;;;;;7.40;6.38;;;;;;;;;;5096566;28;20276;-85
2023/01/29 13:08:10;;;;;;;8.57;7.68;;;;;;;;;;5096974;28;20714;-85
2023/01/29 13:10:42;;;;;;;8.93;7.38;;;;;;;;;;5095558;28;20595;-86
2023/01/29 13:13:16;;;;;;;7.78;6.93;;;;;;;;;;5096326;28;20212;-86
2023/01/29 13:15:44;;;;;;;8.40;7.63;;;;;;;;;;5097031;28;20319;-85
2023/01/29 13:18:38;;;;;;;7.40;6.65;;;;;;;;;;5097662;28;20243;-86
2023/01/29 13:21:06;;;;;;;8.50;7.40;;;;;;;;;;5094946;28;20337;-84
2023/01/29 13:23:37;;;;;;;8.70;7.38;;;;;;;;;;5095353;28;20240;-86
2023/01/29 13:26:06;;;;;;;6.78;6.00;;;;;;;;;;5096116;28;20185;-85
2023/01/29 13:28:35;;;;;;;9.15;8.05;;;;;;;;;;5096437;28;20277;-87
2023/01/29 13:31:28;;;;;;;10.02;8.90;;;;;;;;;;5096581;28;20196;-87
2023/01/29 13:34:14;;;;;;;10.45;9.35;;;;;;;;;;5094223;28;20216;-86
2023/01/29 13:36:44;;;;;;;11.98;9.85;;;;;;;;;;5096647;28;20271;-86
2023/01/29 13:39:23;;;;;;;10.43;9.32;;;;;;;;;;5094702;28;20243;-86
2023/01/29 13:41:51;;;;;;;10.75;8.98;;;;;;;;;;5096051;28;20219;-86
2023/01/29 13:44:26;;;;;;;9.07;7.35;;;;;;;;;;5095631;28;20650;-87
2023/01/29 13:46:59;;;;;;;8.45;7.03;;;;;;;;;;5094899;28;20223;-86
2023/01/29 13:49:32;;;;;;;7.93;7.18;;;;;;;;;;5094496;28;20295;-87
2023/01/29 13:52:13;;;;;;;7.20;6.50;;;;;;;;;;5095187;28;20639;-84
2023/01/29 13:54:42;;;;;;;8.50;7.40;;;;;;;;;;5096107;28;20263;-86
2023/01/29 13:57:50;;;;;;;8.15;7.35;;;;;;;;;;5095293;28;20231;-86
2023/01/29 14:01:00;;;;;;;6.55;5.88;;;;;;;;;;5072232;28;20254;-87
2023/01/29 14:03:56;;;;;;;6.20;5.60;;;;;;;;;;5071671;28;20289;-87
2023/01/29 14:06:44;;;;;;;5.88;5.38;;;;;;;;;;5075410;28;20244;-87
2023/01/29 14:10:11;;;;;;;6.13;5.53;;;;;;;;;;5074578;28;20208;-86
2023/01/29 14:12:44;;;;;;;6.28;5.68;;;;;;;;;;5063744;28;20288;-87
2023/01/29 14:15:20;;;;;;;8.45;6.88;;;;;;;;;;5073896;28;20229;-87
2023/01/29 14:18:00;;;;;;;5.95;5.40;;;;;;;;;;5074049;28;20241;-86
2023/01/29 14:20:33;;;;;;;5.72;5.22;;;;;;;;;;5073425;28;20239;-86
2023/01/29 14:23:02;;;;;;;8.18;7.05;;;;;;;;;;5078073;28;20199;-86
2023/01/29 14:25:33;;;;;;;7.32;6.50;;;;;;;;;;5079044;28;20581;-86
2023/01/29 14:28:02;;;;;;;7.68;6.93;;;;;;;;;;5083898;28;20290;-86
2023/01/29 14:30:32;;;;;;;8.63;6.95;;;;;;;;;;5099295;28;20239;-88
2023/01/29 14:33:01;;;;;;;7.25;6.22;;;;;;;;;;5099521;28;20595;-86
2023/01/29 14:35:32;;;;;;;7.78;5.75;;;;;;;;;;5099195;28;20684;-87
2023/01/29 14:38:03;;;;;;;6.75;5.20;;;;;;;;;;5099513;28;20193;-85
2023/01/29 14:40:31;;;;;;;6.60;5.28;;;;;;;;;;5099464;28;20284;-87
2023/01/29 14:43:02;;;;;;;5.32;4.78;;;;;;;;;;5098260;28;20207;-87
2023/01/29 14:45:32;;;;;;;6.18;5.25;;;;;;;;;;5099280;28;20637;-87
2023/01/29 14:48:33;;;;;;;5.75;4.70;;;;;;;;;;5099404;28;20200;-87
2023/01/29 14:51:08;;;;;;;4.78;4.32;;;;;;;;;;5099873;28;20591;-87
2023/01/29 14:53:54;;;;;;;4.93;4.40;;;;;;;;;;5098676;28;20247;-86
2023/01/29 14:56:28;;;;;;;5.88;5.03;;;;;;;;;;5098627;28;20220;-87
2023/01/29 14:59:04;;;;;;;4.35;3.50;;;;;;;;;;5098114;28;20227;-87
2023/01/29 15:01:37;;;;;;;4.07;3.70;;;;;;;;;;5099064;28;20249;-86
2023/01/29 15:04:13;;;;;;;4.93;4.50;;;;;;;;;;5098880;28;20311;-87
2023/01/29 15:06:45;;;;;;;4.22;3.72;;;;;;;;;;5099298;28;20223;-87
2023/01/29 15:09:15;;;;;;;3.47;3.17;;;;;;;;;;5096951;28;20200;-86
2023/01/29 15:11:52;;;;;;;5.28;3.63;;;;;;;;;;5098690;28;20730;-87
2023/01/29 15:14:29;;;;;;;2.97;2.78;;;;;;;;;;5098017;28;20638;-87
2023/01/29 15:17:17;;;;;;;3.88;3.58;;;;;;;;;;5098479;28;20734;-88
2023/01/29 15:19:48;;;;;;;3.55;3.28;;;;;;;;;;5097321;28;20203;-86
2023/01/29 15:22:17;;;;;;;3.63;3.33;;;;;;;;;;5099028;28;20185;-86
2023/01/29 15:24:46;;;;;;;3.90;3.50;;;;;;;;;;5098328;28;20247;-86
2023/01/29 15:27:17;;;;;;;5.38;3.33;;;;;;;;;;5098121;28;20319;-87
2023/01/29 15:29:49;;;;;;;4.07;3.67;;;;;;;;;;5097622;28;20633;-86
2023/01/29 15:32:29;;;;;;;4.20;3.53;;;;;;;;;;5098123;28;20228;-88
2023/01/29 15:34:59;;;;;;;4.03;3.72;;;;;;;;;;5098703;28;20679;-87
2023/01/29 15:37:33;;;;;;;4.20;3.80;;;;;;;;;;5098532;28;20204;-87